createdAt,value
2022-10-22T00:01:41.191Z,66.45
2022-10-22T00:04:08.074Z,66.27
2022-10-22T00:06:35.313Z,67.48
2022-10-22T00:09:02.130Z,68.43
2022-10-22T00:11:28.826Z,70.13
2022-10-22T00:13:55.947Z,70.55
2022-10-22T00:16:22.558Z,70.17
2022-10-22T00:18:49.202Z,70.93
2022-10-22T00:21:15.823Z,71.41
2022-10-22T00:23:43.448Z,70.21
2022-10-22T00:26:10.932Z,70.35
2022-10-22T00:28:38.147Z,69.58
2022-10-22T00:31:05.335Z,70.07
2022-10-22T00:33:32.092Z,71.88
2022-10-22T00:35:58.901Z,74.31
2022-10-22T00:38:25.651Z,76.33
2022-10-22T00:40:52.339Z,77.03
2022-10-22T00:43:20.365Z,77.32
2022-10-22T00:45:47.313Z,76.25
2022-10-22T00:48:18.808Z,75.14
2022-10-22T00:50:58.189Z,76.12
2022-10-22T00:53:41.588Z,74.51
2022-10-22T00:56:09.727Z,73.88
2022-10-22T00:58:39.172Z,72.00
2022-10-22T01:01:09.257Z,71.07
2022-10-22T01:03:36.195Z,70.20
2022-10-22T01:06:05.267Z,70.55
2022-10-22T01:08:54.516Z,69.29
2022-10-22T01:11:57.260Z,69.07
2022-10-22T01:15:02.398Z,68.35
2022-10-22T01:18:02.617Z,67.97
2022-10-22T01:21:04.846Z,67.67
2022-10-22T01:24:15.547Z,68.62
2022-10-22T01:27:12.694Z,69.01
2022-10-22T01:29:50.555Z,69.81
2022-10-22T01:32:23.639Z,70.02
2022-10-22T01:35:00.303Z,69.56
2022-10-22T01:37:30.389Z,68.86
2022-10-22T01:40:00.935Z,68.51
2022-10-22T01:42:27.883Z,67.98
2022-10-22T01:44:54.500Z,67.76
2022-10-22T01:47:44.110Z,67.55
2022-10-22T01:50:34.365Z,67.26
2022-10-22T01:53:00.896Z,68.36
2022-10-22T01:55:33.614Z,67.78
2022-10-22T01:58:35.499Z,67.10
2022-10-22T02:01:08.070Z,66.73
2022-10-22T02:03:42.795Z,66.81
2022-10-22T02:06:17.451Z,66.45
2022-10-22T02:08:45.810Z,66.36
2022-10-22T02:11:14.827Z,66.17
2022-10-22T02:13:48.767Z,66.24
2022-10-22T02:16:39.544Z,66.00
2022-10-22T02:19:15.902Z,66.21
2022-10-22T02:21:42.839Z,66.55
2022-10-22T02:24:09.483Z,66.57
2022-10-22T02:26:42.798Z,67.56
2022-10-22T02:29:18.846Z,67.09
2022-10-22T02:31:48.789Z,69.34
2022-10-22T02:34:28.438Z,69.51
2022-10-22T02:36:56.245Z,68.95
2022-10-22T02:39:23.240Z,69.24
2022-10-22T02:41:49.870Z,68.53
2022-10-22T02:44:20.514Z,68.24
2022-10-22T02:46:47.135Z,68.04
2022-10-22T02:49:14.135Z,69.09
2022-10-22T02:51:40.726Z,69.25
2022-10-22T02:54:07.334Z,68.37
2022-10-22T02:56:34.167Z,67.92
2022-10-22T02:59:00.777Z,69.27
2022-10-22T03:01:27.451Z,71.86
2022-10-22T03:03:54.109Z,72.39
2022-10-22T03:06:20.739Z,72.56
2022-10-22T03:08:47.461Z,72.66
2022-10-22T03:11:14.068Z,73.68
2022-10-22T03:13:40.728Z,72.83
2022-10-22T03:16:07.429Z,71.66
2022-10-22T03:18:34.342Z,70.69
2022-10-22T03:21:20.470Z,69.92
2022-10-22T03:23:48.201Z,69.92
2022-10-22T03:26:15.431Z,70.46
2022-10-22T03:28:42.527Z,71.50
2022-10-22T03:31:09.174Z,71.21
2022-10-22T03:33:35.746Z,70.41
2022-10-22T03:36:02.475Z,70.68
2022-10-22T03:38:30.105Z,71.35
2022-10-22T03:40:56.853Z,72.56
2022-10-22T03:43:23.645Z,73.32
2022-10-22T03:45:50.214Z,73.80
2022-10-22T03:48:16.823Z,74.27
2022-10-22T03:50:43.403Z,74.77
2022-10-22T03:53:10.716Z,74.49
2022-10-22T03:55:38.387Z,74.50
2022-10-22T03:58:05.616Z,74.66
2022-10-22T04:00:32.691Z,74.36
2022-10-22T04:02:59.290Z,74.55
2022-10-22T04:05:26.068Z,73.57
2022-10-22T04:07:52.715Z,72.94
2022-10-22T04:10:19.315Z,76.25
2022-10-22T04:12:48.787Z,80.47
2022-10-22T04:15:15.526Z,80.67
2022-10-22T04:17:42.503Z,79.53
2022-10-22T04:20:10.042Z,77.28
2022-10-22T04:22:36.978Z,75.75
2022-10-22T04:25:04.806Z,74.56
2022-10-22T04:27:32.594Z,74.35
2022-10-22T04:29:59.381Z,73.91
2022-10-22T04:32:29.471Z,73.78
2022-10-22T04:34:56.065Z,73.11
2022-10-22T04:37:22.641Z,72.82
2022-10-22T04:39:49.343Z,73.98
2022-10-22T04:42:15.969Z,74.06
2022-10-22T04:44:42.636Z,73.18
2022-10-22T04:47:09.218Z,72.51
2022-10-22T04:49:35.807Z,73.60
2022-10-22T04:52:02.413Z,72.69
2022-10-22T04:54:32.219Z,71.82
2022-10-22T04:56:59.934Z,71.80
2022-10-22T04:59:26.593Z,71.51
2022-10-22T05:01:53.163Z,71.29
2022-10-22T05:04:19.890Z,72.00
2022-10-22T05:06:46.771Z,72.26
2022-10-22T05:09:19.679Z,72.37
2022-10-22T05:11:49.143Z,71.81
2022-10-22T05:14:26.210Z,71.40
2022-10-22T05:16:53.033Z,72.69
2022-10-22T05:19:26.481Z,72.32
2022-10-22T05:21:55.082Z,71.92
2022-10-22T05:24:22.241Z,71.71
2022-10-22T05:26:50.957Z,72.06
2022-10-22T05:29:17.607Z,74.12
2022-10-22T05:31:44.305Z,73.12
2022-10-22T05:34:11.289Z,72.16
2022-10-22T05:36:38.049Z,72.80
2022-10-22T05:39:04.854Z,72.82
2022-10-22T05:41:32.909Z,72.88
2022-10-22T05:44:00.513Z,72.57
2022-10-22T05:46:30.052Z,72.78
2022-10-22T05:48:59.416Z,72.13
2022-10-22T05:51:27.977Z,72.47
2022-10-22T05:53:57.249Z,72.12
2022-10-22T05:56:25.165Z,72.10
2022-10-22T05:58:52.241Z,71.62
2022-10-22T06:01:30.354Z,72.20
2022-10-22T06:03:59.302Z,72.49
2022-10-22T06:06:30.332Z,72.15
2022-10-22T06:09:01.617Z,71.79
2022-10-22T06:11:31.092Z,72.54
2022-10-22T06:14:00.778Z,72.79
2022-10-22T06:16:29.553Z,72.49
2022-10-22T06:18:56.322Z,72.07
2022-10-22T06:21:22.915Z,72.57
2022-10-22T06:23:49.482Z,72.12
2022-10-22T06:26:17.871Z,72.41
2022-10-22T06:28:44.517Z,71.79
2022-10-22T06:31:11.140Z,71.36
2022-10-22T06:33:42.314Z,71.92
2022-10-22T06:36:11.905Z,72.67
2022-10-22T06:38:39.165Z,71.67
2022-10-22T06:41:08.305Z,73.16
2022-10-22T06:43:35.534Z,72.91
2022-10-22T06:46:04.135Z,73.05
2022-10-22T06:48:31.238Z,72.35
2022-10-22T06:51:03.122Z,73.08
2022-10-22T06:53:30.698Z,72.90
2022-10-22T06:55:57.544Z,72.59
2022-10-22T06:58:24.551Z,72.82
2022-10-22T07:01:03.973Z,71.83
2022-10-22T07:03:30.586Z,71.96
2022-10-22T07:06:03.062Z,71.50
2022-10-22T07:08:30.308Z,71.94
2022-10-22T07:11:04.875Z,72.90
2022-10-22T07:13:31.456Z,72.30
2022-10-22T07:15:58.088Z,73.10
2022-10-22T07:18:24.821Z,72.23
2022-10-22T07:20:51.384Z,71.36
2022-10-22T07:23:18.020Z,71.90
2022-10-22T07:25:44.955Z,71.90
2022-10-22T07:28:12.052Z,71.93
2022-10-22T07:30:39.450Z,73.56
2022-10-22T07:33:06.422Z,74.91
2022-10-22T07:35:34.505Z,73.21
2022-10-22T07:38:01.294Z,73.65
2022-10-22T07:40:27.975Z,72.98
2022-10-22T07:42:54.627Z,72.51
2022-10-22T07:45:21.304Z,71.47
2022-10-22T07:47:48.543Z,70.93
2022-10-22T07:50:16.142Z,70.96
2022-10-22T07:52:43.308Z,71.40
2022-10-22T07:55:11.183Z,71.75
2022-10-22T07:57:37.791Z,72.93
2022-10-22T08:00:07.181Z,72.59
2022-10-22T08:02:33.831Z,71.44
2022-10-22T08:05:00.466Z,71.71
2022-10-22T08:07:27.362Z,73.10
2022-10-22T08:09:53.982Z,72.66
2022-10-22T08:12:20.718Z,72.54
2022-10-22T08:14:47.318Z,73.75
2022-10-22T08:17:13.906Z,73.75
2022-10-22T08:19:40.514Z,73.67
2022-10-22T08:22:07.493Z,73.78
2022-10-22T08:24:34.180Z,74.29
2022-10-22T08:27:00.875Z,73.15
2022-10-22T08:29:27.467Z,73.45
2022-10-22T08:31:54.358Z,73.26
2022-10-22T08:34:21.074Z,73.11
2022-10-22T08:36:47.995Z,72.60
2022-10-22T08:39:14.679Z,72.70
2022-10-22T08:42:01.211Z,71.80
2022-10-22T08:44:42.993Z,72.15
2022-10-22T08:47:27.150Z,73.19
2022-10-22T08:49:55.219Z,73.62
2022-10-22T08:52:22.065Z,73.63
2022-10-22T08:54:52.490Z,74.50
2022-10-22T08:57:35.948Z,74.26
2022-10-22T09:00:05.246Z,74.08
2022-10-22T09:02:59.531Z,73.66
2022-10-22T09:05:41.213Z,74.50
2022-10-22T09:08:12.443Z,74.83
2022-10-22T09:10:43.778Z,75.45
2022-10-22T09:13:16.067Z,75.47
2022-10-22T09:15:44.996Z,76.07
2022-10-22T09:18:32.054Z,76.01
2022-10-22T09:21:11.265Z,76.63
2022-10-22T09:23:55.958Z,76.02
2022-10-22T09:26:22.579Z,77.12
2022-10-22T09:28:51.200Z,77.09
2022-10-22T09:31:18.323Z,77.45
2022-10-22T09:33:48.852Z,77.20
2022-10-22T09:36:21.754Z,76.90
2022-10-22T09:38:50.851Z,76.52
2022-10-22T09:41:19.877Z,76.18
2022-10-22T09:43:48.296Z,77.38
2022-10-22T09:46:21.574Z,77.43
2022-10-22T09:49:13.251Z,76.54
2022-10-22T09:51:51.932Z,76.33
2022-10-22T09:54:25.823Z,76.29
2022-10-22T09:56:59.382Z,76.55
2022-10-22T09:59:37.141Z,77.20
2022-10-22T10:02:20.040Z,76.90
2022-10-22T10:04:57.838Z,75.87
2022-10-22T10:07:26.925Z,75.16
2022-10-22T10:09:54.659Z,75.29
2022-10-22T10:12:30.827Z,76.60
2022-10-22T10:15:16.296Z,76.68
2022-10-22T10:17:48.971Z,78.02
2022-10-22T10:20:41.095Z,76.37
2022-10-22T10:23:13.594Z,74.70
2022-10-22T10:25:40.087Z,74.77
2022-10-22T10:28:15.459Z,73.96
2022-10-22T10:30:57.306Z,74.05
2022-10-22T10:33:41.789Z,73.35
2022-10-22T10:36:20.951Z,73.68
2022-10-22T10:39:18.363Z,73.84
2022-10-22T10:42:28.240Z,73.16
2022-10-22T10:45:26.793Z,74.38
2022-10-22T10:48:05.308Z,76.10
2022-10-22T10:50:42.787Z,76.91
2022-10-22T10:53:24.511Z,78.82
2022-10-22T10:56:04.792Z,77.75
2022-10-22T10:58:34.083Z,77.21
2022-10-22T11:01:15.373Z,76.16
2022-10-22T11:03:55.970Z,74.12
2022-10-22T11:06:25.540Z,73.24
2022-10-22T11:09:00.172Z,72.97
2022-10-22T11:11:47.103Z,72.64
2022-10-22T11:14:23.440Z,72.85
2022-10-22T11:16:51.828Z,73.89
2022-10-22T11:19:46.269Z,73.20
2022-10-22T11:22:26.795Z,72.22
2022-10-22T11:25:18.286Z,72.00
2022-10-22T11:28:11.553Z,72.02
2022-10-22T11:30:40.921Z,72.33
2022-10-22T11:33:12.811Z,73.08
2022-10-22T11:35:42.664Z,74.38
2022-10-22T11:38:15.110Z,75.07
2022-10-22T11:40:50.439Z,76.95
2022-10-22T11:43:57.244Z,78.46
2022-10-22T11:46:23.816Z,79.46
2022-10-22T11:49:04.847Z,77.81
2022-10-22T11:51:37.212Z,77.84
2022-10-22T11:54:29.823Z,75.97
2022-10-22T11:57:25.439Z,74.28
2022-10-22T12:00:00.690Z,74.01
2022-10-22T12:02:45.003Z,74.52
2022-10-22T12:05:24.011Z,74.07
2022-10-22T12:07:57.175Z,74.62
2022-10-22T12:10:28.354Z,74.51
2022-10-22T12:13:12.810Z,76.25
2022-10-22T12:15:51.870Z,75.58
2022-10-22T12:18:18.549Z,75.58
2022-10-22T12:20:51.044Z,74.90
2022-10-22T12:23:17.966Z,75.45
2022-10-22T12:25:44.597Z,76.24
2022-10-22T12:28:13.259Z,76.20
2022-10-22T12:30:39.902Z,75.44
2022-10-22T12:33:18.056Z,75.24
2022-10-22T12:35:46.734Z,76.72
2022-10-22T12:38:21.333Z,75.79
2022-10-22T12:40:51.222Z,76.80
2022-10-22T12:43:23.859Z,75.37
2022-10-22T12:45:51.702Z,75.26
2022-10-22T12:48:30.854Z,74.41
2022-10-22T12:51:03.903Z,74.05
2022-10-22T12:53:37.887Z,73.68
2022-10-22T12:56:07.142Z,73.95
2022-10-22T12:58:39.628Z,73.29
2022-10-22T13:01:06.900Z,73.53
2022-10-22T13:03:41.623Z,73.75
2022-10-22T13:06:20.302Z,74.02
2022-10-22T13:09:03.933Z,74.47
2022-10-22T13:11:38.292Z,74.14
2022-10-22T13:14:15.855Z,73.90
2022-10-22T13:16:42.465Z,74.11
2022-10-22T13:19:47.329Z,74.10
2022-10-22T13:22:37.766Z,74.60
2022-10-22T13:25:17.216Z,75.06
2022-10-22T13:27:48.658Z,74.36
2022-10-22T13:30:22.763Z,74.22
2022-10-22T13:32:56.001Z,74.24
2022-10-22T13:35:24.662Z,73.54
2022-10-22T13:37:51.440Z,72.53
2022-10-22T13:40:18.539Z,72.02
2022-10-22T13:42:45.175Z,73.60
2022-10-22T13:45:13.773Z,73.84
2022-10-22T13:47:41.211Z,73.05
2022-10-22T13:50:14.803Z,73.40
2022-10-22T13:52:45.136Z,71.72
2022-10-22T13:55:25.710Z,72.62
2022-10-22T13:58:10.298Z,72.67
2022-10-22T14:00:42.321Z,73.27
2022-10-22T14:03:15.194Z,72.59
2022-10-22T14:05:41.914Z,72.75
2022-10-22T14:08:17.839Z,71.96
2022-10-22T14:10:44.650Z,72.63
2022-10-22T14:13:12.551Z,72.45
2022-10-22T14:15:40.830Z,72.31
2022-10-22T14:18:11.385Z,72.30
2022-10-22T14:20:40.990Z,72.35
2022-10-22T14:25:51.126Z,71.03
2022-10-22T14:28:17.982Z,70.38
2022-10-22T14:30:45.210Z,69.58
2022-10-22T14:33:28.992Z,69.70
2022-10-22T14:35:59.966Z,68.81
2022-10-22T14:38:26.727Z,69.66
2022-10-22T14:40:53.335Z,70.10
2022-10-22T14:43:26.123Z,70.08
2022-10-22T14:45:52.794Z,71.34
2022-10-22T14:50:51.193Z,70.59
2022-10-22T14:53:17.826Z,69.87
2022-10-22T14:55:47.212Z,68.47
2022-10-22T14:58:14.427Z,69.19
2022-10-22T15:00:42.072Z,67.46
2022-10-22T15:03:08.849Z,68.15
2022-10-22T15:05:36.349Z,68.33
2022-10-22T15:08:03.339Z,66.63
2022-10-22T15:10:29.915Z,66.78
2022-10-22T15:12:56.525Z,66.92
2022-10-22T15:15:23.816Z,65.52
2022-10-22T15:17:51.273Z,64.69
2022-10-22T15:20:17.969Z,64.12
2022-10-22T15:22:45.377Z,65.67
2022-10-22T15:25:13.457Z,64.63
2022-10-22T15:27:40.195Z,64.51
2022-10-22T15:30:07.585Z,64.05
2022-10-22T15:32:34.420Z,64.00
2022-10-22T15:35:05.960Z,62.99
2022-10-22T15:37:32.595Z,61.56
2022-10-22T15:40:00.506Z,63.76
2022-10-22T15:42:27.086Z,63.39
2022-10-22T15:45:00.144Z,63.03
2022-10-22T15:47:29.624Z,63.23
2022-10-22T15:49:56.434Z,63.52
2022-10-22T15:52:23.058Z,63.35
2022-10-22T15:54:49.720Z,63.29
2022-10-22T15:57:16.416Z,63.19
2022-10-22T15:59:43.111Z,63.08
2022-10-22T16:02:11.397Z,62.88
2022-10-22T16:04:38.684Z,62.98
2022-10-22T16:07:05.325Z,63.06
2022-10-22T16:09:31.932Z,62.96
2022-10-22T16:11:58.569Z,62.61
2022-10-22T16:14:25.398Z,62.75
2022-10-22T16:16:54.298Z,62.60
2022-10-22T16:19:22.733Z,61.98
2022-10-22T16:21:52.202Z,61.64
2022-10-22T16:24:19.667Z,61.74
2022-10-22T16:26:46.606Z,62.20
2022-10-22T16:29:13.510Z,61.91
2022-10-22T16:31:42.860Z,61.60
2022-10-22T16:34:09.726Z,61.61
2022-10-22T16:36:37.176Z,61.62
2022-10-22T16:39:05.226Z,61.59
2022-10-22T16:41:37.946Z,61.31
2022-10-22T16:44:07.839Z,61.61
2022-10-22T16:46:36.772Z,60.98
2022-10-22T16:49:03.356Z,61.41
2022-10-22T16:51:30.093Z,61.55
2022-10-22T16:53:57.535Z,61.37
2022-10-22T16:56:25.499Z,61.15
2022-10-22T16:58:54.783Z,60.97
2022-10-22T17:01:24.260Z,60.86
2022-10-22T17:03:50.884Z,61.04
2022-10-22T17:06:18.247Z,60.82
2022-10-22T17:08:45.054Z,61.03
2022-10-22T17:11:17.754Z,61.08
2022-10-22T17:13:48.726Z,60.75
2022-10-22T17:16:17.271Z,61.81
2022-10-22T17:21:18.532Z,61.56
2022-10-22T17:23:45.852Z,61.25
2022-10-22T17:26:20.430Z,61.28
2022-10-22T17:28:47.969Z,61.61
2022-10-22T17:31:25.850Z,62.46
2022-10-22T17:33:54.840Z,62.55
2022-10-22T17:36:22.920Z,62.30
2022-10-22T17:38:55.022Z,61.79
2022-10-22T17:41:25.754Z,61.95
2022-10-22T17:43:52.407Z,62.00
2022-10-22T17:46:22.259Z,62.28
2022-10-22T17:48:53.629Z,62.45
2022-10-22T17:51:20.883Z,62.05
2022-10-22T17:53:48.170Z,62.01
2022-10-22T17:56:17.305Z,62.36
2022-10-22T17:58:44.055Z,63.29
2022-10-22T18:01:20.958Z,63.29
2022-10-22T18:03:47.775Z,63.09
2022-10-22T18:06:14.463Z,62.68
2022-10-22T18:08:41.183Z,63.06
2022-10-22T18:11:12.960Z,63.16
2022-10-22T18:13:39.575Z,63.41
2022-10-22T18:16:06.497Z,63.55
2022-10-22T18:18:35.135Z,64.43
2022-10-22T18:21:02.450Z,64.36
2022-10-22T18:23:29.084Z,64.20
2022-10-22T18:25:55.828Z,64.60
2022-10-22T18:28:22.482Z,64.49
2022-10-22T18:30:49.203Z,64.86
2022-10-22T18:33:19.022Z,65.09
2022-10-22T18:35:48.429Z,65.19
2022-10-22T18:38:15.095Z,64.93
2022-10-22T18:40:46.688Z,64.97
2022-10-22T18:43:13.422Z,64.48
2022-10-22T18:45:44.533Z,64.98
2022-10-22T18:48:13.833Z,64.59
2022-10-22T18:50:40.480Z,64.98
2022-10-22T18:53:07.069Z,64.73
2022-10-22T18:55:34.904Z,65.01
2022-10-22T18:58:01.474Z,64.69
2022-10-22T19:00:28.114Z,64.59
2022-10-22T19:02:54.976Z,64.23
2022-10-22T19:05:21.839Z,64.39
2022-10-22T19:07:50.297Z,64.57
2022-10-22T19:10:17.543Z,64.62
2022-10-22T19:12:44.156Z,64.62
2022-10-22T19:15:10.897Z,64.61
2022-10-22T19:17:37.569Z,64.68
2022-10-22T19:20:04.710Z,64.90
2022-10-22T19:22:31.957Z,64.83
2022-10-22T19:24:58.961Z,65.27
2022-10-22T19:27:25.615Z,64.96
2022-10-22T19:29:52.282Z,65.26
2022-10-22T19:32:20.138Z,65.16
2022-10-22T19:34:47.242Z,64.96
2022-10-22T19:37:13.838Z,65.03
2022-10-22T19:39:40.433Z,65.08
2022-10-22T19:42:07.053Z,64.97
2022-10-22T19:44:33.730Z,65.22
2022-10-22T19:47:00.318Z,65.61
2022-10-22T19:49:26.957Z,65.74
2022-10-22T19:51:53.538Z,65.30
2022-10-22T19:54:20.605Z,65.07
2022-10-22T19:56:48.101Z,65.10
2022-10-22T19:59:16.156Z,65.52
2022-10-22T20:01:43.087Z,65.53
2022-10-22T20:04:15.147Z,66.57
2022-10-22T20:06:42.958Z,66.27
2022-10-22T20:09:11.160Z,66.12
2022-10-22T20:11:37.937Z,66.58
2022-10-22T20:14:04.564Z,66.62
2022-10-22T20:16:31.699Z,66.53
2022-10-22T20:19:02.983Z,66.59
2022-10-22T20:21:29.969Z,67.25
2022-10-22T20:23:57.550Z,67.62
2022-10-22T20:26:27.861Z,67.80
2022-10-22T20:28:55.807Z,67.11
2022-10-22T20:31:24.287Z,66.71
2022-10-22T20:33:51.242Z,67.48
2022-10-22T20:36:22.388Z,66.95
2022-10-22T20:38:50.267Z,67.70
2022-10-22T20:41:20.655Z,67.53
2022-10-22T20:43:49.233Z,67.08
2022-10-22T20:46:27.963Z,66.68
2022-10-22T20:48:58.389Z,66.67
2022-10-22T20:51:25.009Z,66.89
2022-10-22T20:53:51.665Z,66.49
2022-10-22T20:56:19.516Z,66.35
2022-10-22T20:58:49.477Z,66.25
2022-10-22T21:01:22.208Z,66.44
2022-10-22T21:03:51.404Z,66.21
2022-10-22T21:06:22.920Z,66.64
2022-10-22T21:08:50.681Z,66.71
2022-10-22T21:11:18.460Z,67.02
2022-10-22T21:13:45.028Z,67.04
2022-10-22T21:16:13.930Z,67.72
2022-10-22T21:18:40.800Z,68.49
2022-10-22T21:21:08.462Z,68.00
2022-10-22T21:23:36.606Z,68.01
2022-10-22T21:26:03.394Z,67.20
2022-10-22T21:31:06.839Z,67.74
2022-10-22T21:33:38.062Z,68.03
2022-10-22T21:36:06.144Z,68.00
2022-10-22T21:38:33.412Z,67.67
2022-10-22T21:41:05.233Z,67.33
2022-10-22T21:43:31.793Z,67.08
2022-10-22T21:46:08.854Z,67.54
2022-10-22T21:48:36.521Z,67.21
2022-10-22T21:51:12.177Z,68.47
2022-10-22T21:53:39.536Z,68.96
2022-10-22T21:56:07.127Z,68.65
2022-10-22T21:58:35.533Z,68.68
2022-10-22T22:01:02.804Z,68.15
2022-10-22T22:03:29.450Z,67.60
2022-10-22T22:06:01.714Z,68.03
2022-10-22T22:08:28.397Z,69.14
2022-10-22T22:11:02.686Z,68.82
2022-10-22T22:13:29.311Z,68.70
2022-10-22T22:16:03.422Z,69.69
2022-10-22T22:18:31.098Z,68.50
2022-10-22T22:20:59.073Z,68.20
2022-10-22T22:23:26.330Z,67.90
2022-10-22T22:25:52.988Z,67.73
2022-10-22T22:28:19.565Z,68.13
2022-10-22T22:30:46.138Z,68.19
2022-10-22T22:33:12.759Z,68.28
2022-10-22T22:38:10.793Z,69.27
2022-10-22T22:40:41.227Z,69.11
2022-10-22T22:43:08.547Z,70.80
2022-10-22T22:45:35.658Z,71.63
2022-10-22T22:48:03.154Z,70.05
2022-10-22T22:50:30.502Z,70.17
2022-10-22T22:52:57.125Z,70.45
2022-10-22T22:55:23.749Z,69.47
2022-10-22T22:57:50.511Z,69.12
2022-10-22T23:00:17.342Z,69.58
2022-10-22T23:02:44.210Z,70.18
2022-10-22T23:05:11.125Z,69.56
2022-10-22T23:07:37.685Z,69.88
2022-10-22T23:10:04.424Z,69.66
2022-10-22T23:12:30.996Z,69.72
2022-10-22T23:15:02.018Z,70.07
2022-10-22T23:17:28.896Z,71.14
2022-10-22T23:19:55.510Z,70.44
2022-10-22T23:22:22.080Z,69.83
2022-10-22T23:24:48.632Z,70.08
2022-10-22T23:27:15.224Z,70.85
2022-10-22T23:29:41.807Z,70.53
2022-10-22T23:32:14.311Z,70.69
2022-10-22T23:34:40.961Z,70.42
2022-10-22T23:37:07.650Z,70.22
2022-10-22T23:39:34.295Z,70.10
2022-10-22T23:42:00.944Z,70.12
2022-10-22T23:44:27.789Z,69.87
2022-10-22T23:46:55.230Z,69.96
2022-10-22T23:49:21.861Z,69.76
2022-10-22T23:51:48.505Z,70.03
2022-10-22T23:54:18.115Z,69.99
2022-10-22T23:56:45.151Z,69.55
2022-10-22T23:59:11.752Z,69.42
